createdAt,value
2022-09-14T00:02:42.970Z,2.20
2022-09-14T00:05:47.855Z,1.60
2022-09-14T00:08:55.022Z,1.60
2022-09-14T00:11:59.806Z,1.50
2022-09-14T00:15:05.511Z,1.60
2022-09-14T00:18:12.352Z,1.33
2022-09-14T00:21:17.009Z,1.30
2022-09-14T00:24:22.305Z,1.33
2022-09-14T00:27:27.032Z,0.80
2022-09-14T00:30:31.840Z,1.00
2022-09-14T00:33:38.953Z,1.17
2022-09-14T00:36:48.199Z,1.50
2022-09-14T00:39:53.024Z,0.40
2022-09-14T00:42:57.751Z,0.40
2022-09-14T00:46:03.522Z,0.82
2022-09-14T00:49:16.051Z,0.60
2022-09-14T00:52:33.906Z,0.47
2022-09-14T00:55:38.741Z,0.50
2022-09-14T00:58:46.439Z,0.50
2022-09-14T01:01:52.448Z,1.25
2022-09-14T01:04:57.614Z,0.85
2022-09-14T01:08:16.360Z,1.02
2022-09-14T01:11:51.768Z,0.95
2022-09-14T01:15:02.618Z,1.10
2022-09-14T01:18:20.580Z,0.75
2022-09-14T01:21:30.713Z,0.60
2022-09-14T01:24:55.631Z,0.38
2022-09-14T01:28:05.417Z,0.32
2022-09-14T01:31:49.332Z,0.95
2022-09-14T01:34:59.701Z,1.02
2022-09-14T01:38:17.792Z,0.75
2022-09-14T01:41:26.367Z,1.05
2022-09-14T01:44:44.092Z,0.32
2022-09-14T01:48:15.601Z,0.50
2022-09-14T01:51:42.862Z,0.47
2022-09-14T01:55:07.391Z,1.30
2022-09-14T01:58:36.884Z,0.50
2022-09-14T02:01:51.752Z,0.60
2022-09-14T02:05:09.634Z,0.60
2022-09-14T02:08:14.671Z,1.17
2022-09-14T02:11:19.491Z,0.68
2022-09-14T02:14:25.032Z,0.55
2022-09-14T02:17:31.882Z,0.40
2022-09-14T02:20:49.751Z,0.32
2022-09-14T02:23:54.880Z,0.40
2022-09-14T02:27:01.053Z,0.20
2022-09-14T02:30:06.763Z,3.00
2022-09-14T02:33:29.388Z,0.32
2022-09-14T02:36:56.477Z,0.55
2022-09-14T02:40:22.420Z,0.40
2022-09-14T02:46:46.791Z,0.20
2022-09-14T02:50:20.649Z,0.70
2022-09-14T02:53:53.990Z,0.60
2022-09-14T02:57:04.083Z,0.20
2022-09-14T03:00:09.426Z,0.47
2022-09-14T03:03:16.858Z,0.65
2022-09-14T03:06:22.132Z,0.50
2022-09-14T03:12:31.369Z,0.70
2022-09-14T03:15:36.716Z,0.45
2022-09-14T03:21:46.432Z,1.08
2022-09-14T03:24:51.826Z,0.40
2022-09-14T03:31:07.735Z,0.40
2022-09-14T03:34:12.618Z,0.30
2022-09-14T03:37:17.796Z,0.57
2022-09-14T03:40:22.319Z,1.38
2022-09-14T03:43:28.555Z,0.68
2022-09-14T03:46:34.353Z,1.00
2022-09-14T03:49:39.141Z,1.10
2022-09-14T03:52:44.428Z,0.30
2022-09-14T03:58:53.833Z,3.45
2022-09-14T04:05:03.040Z,1.63
2022-09-14T04:08:07.813Z,0.50
2022-09-14T04:11:18.575Z,1.60
2022-09-14T04:14:24.901Z,0.60
2022-09-14T04:17:30.380Z,0.95
2022-09-14T04:20:35.377Z,0.45
2022-09-14T04:24:02.992Z,0.20
2022-09-14T04:27:04.731Z,0.15
2022-09-14T04:30:09.606Z,0.20
2022-09-14T04:33:14.244Z,1.48
2022-09-14T04:36:24.572Z,0.70
2022-09-14T04:39:29.224Z,0.20
2022-09-14T04:42:33.835Z,0.47
2022-09-14T04:45:38.281Z,1.10
2022-09-14T04:48:43.537Z,0.47
2022-09-14T04:51:48.113Z,0.60
2022-09-14T04:54:52.931Z,1.52
2022-09-14T04:57:57.631Z,1.40
2022-09-14T05:01:07.323Z,1.00
2022-09-14T05:04:13.494Z,1.08
2022-09-14T05:07:18.227Z,0.68
2022-09-14T05:10:22.993Z,0.47
2022-09-14T05:13:27.852Z,0.20
2022-09-14T05:16:38.464Z,0.30
2022-09-14T05:19:43.161Z,0.20
2022-09-14T05:22:51.957Z,0.50
2022-09-14T05:25:56.462Z,0.45
2022-09-14T05:29:03.536Z,0.80
2022-09-14T05:32:08.337Z,0.57
2022-09-14T05:35:13.293Z,0.32
2022-09-14T05:38:18.312Z,0.40
2022-09-14T05:41:22.929Z,0.60
2022-09-14T05:44:27.589Z,1.00
2022-09-14T05:47:37.074Z,0.40
2022-09-14T05:50:43.914Z,0.30
2022-09-14T05:53:53.881Z,0.50
2022-09-14T05:56:58.631Z,0.25
2022-09-14T06:00:03.389Z,0.10
2022-09-14T06:03:16.450Z,0.40
2022-09-14T06:06:22.132Z,1.60
2022-09-14T06:09:30.008Z,0.63
2022-09-14T06:12:37.783Z,1.02
2022-09-14T06:15:42.410Z,0.28
2022-09-14T06:18:48.442Z,0.15
2022-09-14T06:21:53.312Z,0.30
2022-09-14T06:24:57.821Z,0.35
2022-09-14T06:28:02.757Z,0.40
2022-09-14T06:31:08.512Z,0.20
2022-09-14T06:34:12.951Z,0.40
2022-09-14T06:37:17.704Z,0.70
2022-09-14T06:40:22.136Z,0.45
2022-09-14T06:43:35.319Z,0.43
2022-09-14T06:46:39.898Z,1.52
2022-09-14T06:49:44.605Z,4.18
2022-09-14T06:52:49.018Z,3.30
2022-09-14T06:55:54.185Z,0.80
2022-09-14T06:59:00.200Z,1.15
2022-09-14T07:02:04.994Z,1.77
2022-09-14T07:05:10.823Z,1.90
2022-09-14T07:08:15.601Z,1.33
2022-09-14T07:11:24.494Z,2.65
2022-09-14T07:14:32.222Z,1.65
2022-09-14T07:17:37.433Z,1.13
2022-09-14T07:20:42.240Z,1.60
2022-09-14T07:23:48.488Z,1.58
2022-09-14T07:26:53.187Z,2.75
2022-09-14T07:29:57.883Z,2.03
2022-09-14T07:33:02.588Z,2.08
2022-09-14T07:36:09.209Z,2.05
2022-09-14T07:39:16.136Z,9.05
2022-09-14T07:42:20.836Z,6.30
2022-09-14T07:45:25.583Z,2.65
2022-09-14T07:48:30.288Z,3.75
2022-09-14T07:51:37.726Z,3.63
2022-09-14T07:54:46.407Z,4.05
2022-09-14T07:57:57.580Z,3.97
2022-09-14T08:01:05.414Z,1.88
2022-09-14T08:04:10.330Z,5.75
2022-09-14T08:07:15.933Z,6.28
2022-09-14T08:10:20.819Z,6.65
2022-09-14T08:13:25.380Z,4.22
2022-09-14T08:16:31.841Z,4.30
2022-09-14T08:19:37.269Z,4.25
2022-09-14T08:22:42.148Z,4.65
2022-09-14T08:25:47.123Z,9.10
2022-09-14T08:28:53.670Z,11.02
2022-09-14T08:31:59.364Z,6.20
2022-09-14T08:35:03.956Z,8.73
2022-09-14T08:38:08.713Z,9.18
2022-09-14T08:41:21.009Z,11.20
2022-09-14T08:44:42.541Z,9.57
2022-09-14T08:47:47.391Z,8.55
2022-09-14T08:50:54.817Z,8.80
2022-09-14T08:54:03.235Z,6.88
2022-09-14T08:57:19.099Z,2.78
2022-09-14T09:00:48.208Z,2.78
2022-09-14T09:04:10.569Z,3.10
2022-09-14T09:07:21.370Z,2.47
2022-09-14T09:10:28.714Z,2.67
2022-09-14T09:13:37.992Z,2.38
2022-09-14T09:16:47.271Z,3.10
2022-09-14T09:20:01.224Z,4.78
2022-09-14T09:23:19.538Z,4.35
2022-09-14T09:26:29.706Z,4.13
2022-09-14T09:29:34.863Z,4.03
2022-09-14T09:32:48.490Z,3.80
2022-09-14T09:36:21.109Z,7.25
2022-09-14T09:39:26.997Z,4.53
2022-09-14T09:42:32.663Z,2.38
2022-09-14T09:46:07.283Z,2.42
2022-09-14T09:49:40.028Z,2.58
2022-09-14T09:53:06.023Z,4.32
2022-09-14T09:56:22.929Z,5.32
2022-09-14T09:59:37.653Z,5.20
2022-09-14T10:02:43.311Z,6.70
2022-09-14T10:06:00.449Z,7.45
2022-09-14T10:09:18.993Z,7.85
2022-09-14T10:12:24.382Z,9.13
2022-09-14T10:15:39.507Z,9.55
2022-09-14T10:18:49.147Z,7.95
2022-09-14T10:22:19.239Z,10.80
2022-09-14T10:25:28.963Z,9.32
2022-09-14T10:28:35.955Z,8.80
2022-09-14T10:31:43.155Z,7.43
2022-09-14T10:34:48.141Z,11.95
2022-09-14T10:38:09.849Z,10.70
2022-09-14T10:41:32.307Z,5.95
2022-09-14T10:45:03.248Z,5.55
2022-09-14T10:48:46.994Z,3.20
2022-09-14T10:52:11.853Z,8.32
2022-09-14T10:55:44.650Z,3.00
2022-09-14T10:59:01.133Z,1.85
2022-09-14T11:02:37.510Z,2.33
2022-09-14T11:06:10.294Z,2.30
2022-09-14T11:09:56.876Z,2.20
2022-09-14T11:13:26.208Z,2.38
2022-09-14T11:16:59.732Z,1.60
2022-09-14T11:20:39.381Z,1.90
2022-09-14T11:24:05.697Z,1.75
2022-09-14T11:27:24.589Z,2.10
2022-09-14T11:30:47.347Z,2.50
2022-09-14T11:34:16.705Z,2.88
2022-09-14T11:37:48.196Z,3.45
2022-09-14T11:41:24.471Z,3.17
2022-09-14T11:44:52.064Z,4.05
2022-09-14T11:48:40.788Z,4.10
2022-09-14T11:51:46.614Z,15.25
2022-09-14T11:54:52.649Z,23.73
2022-09-14T11:57:59.869Z,14.10
2022-09-14T12:01:33.785Z,63.63
2022-09-14T12:04:38.412Z,41.78
2022-09-14T12:08:29.935Z,29.33
2022-09-14T12:11:50.514Z,25.73
2022-09-14T12:15:35.067Z,25.45
2022-09-14T12:18:47.669Z,18.52
2022-09-14T12:21:53.877Z,13.13
2022-09-14T12:25:13.275Z,9.93
2022-09-14T12:28:36.450Z,16.90
2022-09-14T12:31:48.817Z,20.42
2022-09-14T12:35:33.162Z,22.13
2022-09-14T12:38:54.500Z,18.58
2022-09-14T12:42:02.391Z,13.38
2022-09-14T12:45:50.621Z,12.43
2022-09-14T12:48:59.617Z,11.73
2022-09-14T12:52:24.921Z,13.02
2022-09-14T12:55:35.603Z,10.00
2022-09-14T12:58:54.793Z,11.15
2022-09-14T13:02:21.273Z,11.65
2022-09-14T13:05:29.665Z,9.90
2022-09-14T13:08:34.773Z,11.18
2022-09-14T13:11:42.172Z,10.80
2022-09-14T13:15:00.122Z,11.40
2022-09-14T13:18:28.447Z,11.10
2022-09-14T13:21:33.372Z,10.40
2022-09-14T13:24:46.859Z,9.35
2022-09-14T13:27:53.444Z,9.20
2022-09-14T13:31:03.668Z,9.80
2022-09-14T13:34:08.746Z,11.20
2022-09-14T13:37:16.665Z,10.00
2022-09-14T13:40:26.721Z,10.15
2022-09-14T13:43:31.785Z,8.45
2022-09-14T13:46:38.278Z,7.88
2022-09-14T13:49:46.057Z,9.43
2022-09-14T13:53:01.903Z,6.63
2022-09-14T13:56:33.372Z,5.65
2022-09-14T13:59:38.124Z,7.88
2022-09-14T14:02:50.811Z,9.70
2022-09-14T14:05:55.846Z,8.75
2022-09-14T14:09:15.443Z,9.18
2022-09-14T14:12:30.624Z,15.13
2022-09-14T14:15:43.839Z,17.92
2022-09-14T14:18:52.907Z,15.35
2022-09-14T14:22:15.934Z,13.50
2022-09-14T14:25:21.417Z,12.57
2022-09-14T14:31:31.484Z,13.98
2022-09-14T14:34:36.183Z,14.65
2022-09-14T14:37:41.805Z,13.85
2022-09-14T14:40:48.069Z,13.15
2022-09-14T14:43:52.892Z,10.52
2022-09-14T14:46:58.293Z,6.27
2022-09-14T14:50:04.820Z,5.57
2022-09-14T14:53:10.427Z,7.43
2022-09-14T14:56:15.455Z,7.20
2022-09-14T14:59:23.802Z,7.78
2022-09-14T15:02:28.613Z,6.00
2022-09-14T15:05:33.361Z,7.90
2022-09-14T15:08:37.920Z,4.50
2022-09-14T15:11:43.097Z,3.70
2022-09-14T15:14:47.860Z,4.50
2022-09-14T15:17:53.361Z,4.10
2022-09-14T15:20:58.122Z,3.53
2022-09-14T15:24:02.754Z,3.97
2022-09-14T15:27:07.693Z,3.97
2022-09-14T15:30:13.713Z,4.03
2022-09-14T15:33:18.190Z,4.43
2022-09-14T15:36:38.419Z,4.30
2022-09-14T15:39:48.113Z,5.05
2022-09-14T15:42:54.800Z,4.63
2022-09-14T15:46:06.491Z,4.40
2022-09-14T15:49:14.754Z,5.20
2022-09-14T15:52:19.517Z,4.75
2022-09-14T15:55:24.315Z,4.67
2022-09-14T15:58:31.778Z,4.47
2022-09-14T16:01:38.043Z,4.43
2022-09-14T16:04:42.748Z,3.58
2022-09-14T16:07:47.356Z,3.95
2022-09-14T16:10:59.956Z,3.55
2022-09-14T16:14:08.928Z,3.75
2022-09-14T16:17:13.682Z,3.45
2022-09-14T16:20:18.992Z,3.27
2022-09-14T16:23:23.726Z,3.20
2022-09-14T16:26:33.221Z,4.43
2022-09-14T16:29:37.843Z,4.95
2022-09-14T16:32:42.424Z,4.50
2022-09-14T16:35:47.064Z,4.22
2022-09-14T16:38:52.030Z,4.15
2022-09-14T16:41:59.357Z,4.32
2022-09-14T16:45:04.037Z,4.18
2022-09-14T16:48:08.946Z,4.00
2022-09-14T16:51:15.807Z,3.90
2022-09-14T16:54:23.485Z,4.18
2022-09-14T16:57:30.640Z,3.80
2022-09-14T17:00:36.646Z,3.38
2022-09-14T17:03:42.557Z,2.78
2022-09-14T17:06:47.632Z,2.63
2022-09-14T17:09:52.851Z,3.00
2022-09-14T17:12:57.650Z,3.38
2022-09-14T17:16:09.875Z,3.10
2022-09-14T17:19:14.948Z,3.10
2022-09-14T17:22:19.379Z,3.65
2022-09-14T17:25:25.526Z,3.58
2022-09-14T17:28:31.050Z,2.97
2022-09-14T17:31:40.027Z,2.92
2022-09-14T17:34:44.877Z,2.85
2022-09-14T17:37:49.556Z,2.70
2022-09-14T17:40:54.820Z,2.50
2022-09-14T17:44:02.209Z,2.58
2022-09-14T17:47:07.247Z,2.55
2022-09-14T17:50:12.620Z,2.30
2022-09-14T17:53:17.763Z,2.50
2022-09-14T17:56:24.922Z,2.50
2022-09-14T17:59:29.722Z,2.40
2022-09-14T18:02:34.323Z,2.55
2022-09-14T18:05:39.074Z,1.77
2022-09-14T18:08:43.705Z,1.90
2022-09-14T18:11:49.893Z,2.03
2022-09-14T18:14:54.511Z,1.45
2022-09-14T18:17:59.509Z,1.88
2022-09-14T18:21:04.180Z,1.65
2022-09-14T18:24:09.029Z,1.70
2022-09-14T18:27:13.875Z,1.60
2022-09-14T18:30:18.548Z,1.15
2022-09-14T18:33:23.026Z,1.63
2022-09-14T18:36:30.348Z,1.63
2022-09-14T18:39:35.083Z,1.13
2022-09-14T18:42:39.675Z,1.27
2022-09-14T18:45:45.693Z,1.38
2022-09-14T18:48:57.609Z,1.23
2022-09-14T18:52:02.353Z,1.23
2022-09-14T18:55:07.544Z,1.40
2022-09-14T18:58:12.120Z,1.38
2022-09-14T19:01:17.134Z,1.30
2022-09-14T19:04:24.637Z,1.05
2022-09-14T19:07:29.383Z,1.33
2022-09-14T19:10:36.821Z,1.30
2022-09-14T19:13:42.021Z,1.48
2022-09-14T19:16:46.835Z,1.35
2022-09-14T19:19:53.271Z,1.50
2022-09-14T19:22:59.456Z,1.60
2022-09-14T19:26:09.960Z,1.30
2022-09-14T19:29:17.095Z,1.50
2022-09-14T19:32:21.935Z,1.10
2022-09-14T19:35:28.053Z,1.33
2022-09-14T19:38:32.482Z,1.20
2022-09-14T19:41:39.646Z,1.20
2022-09-14T19:44:44.090Z,0.93
2022-09-14T19:47:52.454Z,1.23
2022-09-14T19:51:04.980Z,1.23
2022-09-14T19:54:10.982Z,1.20
2022-09-14T19:57:15.656Z,1.20
2022-09-14T20:00:20.348Z,1.63
2022-09-14T20:03:25.903Z,1.52
2022-09-14T20:06:33.519Z,1.42
2022-09-14T20:09:39.321Z,1.60
2022-09-14T20:12:44.465Z,2.10
2022-09-14T20:15:49.238Z,2.20
2022-09-14T20:18:54.233Z,1.98
2022-09-14T20:21:59.134Z,1.92
2022-09-14T20:25:03.931Z,1.77
2022-09-14T20:28:11.086Z,1.97
2022-09-14T20:31:19.048Z,1.30
2022-09-14T20:34:24.129Z,1.23
2022-09-14T20:37:30.070Z,1.60
2022-09-14T20:40:34.848Z,1.55
2022-09-14T20:43:41.112Z,1.30
2022-09-14T20:46:47.863Z,1.30
2022-09-14T20:49:52.469Z,1.38
2022-09-14T20:52:57.218Z,1.40
2022-09-14T20:56:03.735Z,1.40
2022-09-14T20:59:11.572Z,1.63
2022-09-14T21:02:16.609Z,1.65
2022-09-14T21:05:21.477Z,1.85
2022-09-14T21:08:26.182Z,2.20
2022-09-14T21:11:31.909Z,1.67
2022-09-14T21:14:36.491Z,2.22
2022-09-14T21:17:41.170Z,1.75
2022-09-14T21:20:45.945Z,1.70
2022-09-14T21:23:51.386Z,2.63
2022-09-14T21:26:58.427Z,3.17
2022-09-14T21:30:03.646Z,4.22
2022-09-14T21:33:08.507Z,4.32
2022-09-14T21:36:41.953Z,3.97
2022-09-14T21:39:46.827Z,3.13
2022-09-14T21:43:16.149Z,2.70
2022-09-14T21:46:21.008Z,2.13
2022-09-14T21:49:25.660Z,3.20
2022-09-14T21:52:30.550Z,2.45
2022-09-14T21:55:42.533Z,2.67
2022-09-14T21:58:54.881Z,3.00
2022-09-14T22:01:59.442Z,3.33
2022-09-14T22:05:10.867Z,4.35
2022-09-14T22:08:16.136Z,4.35
2022-09-14T22:11:23.563Z,3.92
2022-09-14T22:14:30.264Z,3.88
2022-09-14T22:17:34.908Z,3.35
2022-09-14T22:20:39.880Z,5.40
2022-09-14T22:23:59.398Z,5.97
2022-09-14T22:27:04.930Z,2.88
2022-09-14T22:30:11.112Z,1.17
2022-09-14T22:33:15.744Z,1.25
2022-09-14T22:36:23.994Z,1.70
2022-09-14T22:39:28.698Z,2.55
2022-09-14T22:42:33.364Z,2.63
2022-09-14T22:45:37.898Z,3.30
2022-09-14T22:48:43.372Z,3.55
2022-09-14T22:51:48.560Z,3.08
2022-09-14T22:54:53.206Z,2.53
2022-09-14T22:57:57.763Z,3.05
2022-09-14T23:01:08.736Z,3.00
2022-09-14T23:04:15.194Z,1.80
2022-09-14T23:07:21.011Z,2.00
2022-09-14T23:10:25.895Z,2.03
2022-09-14T23:13:30.255Z,1.40
2022-09-14T23:16:34.941Z,0.80
2022-09-14T23:19:39.596Z,2.35
2022-09-14T23:22:44.621Z,2.38
2022-09-14T23:25:49.163Z,2.38
2022-09-14T23:28:58.184Z,1.90
2022-09-14T23:32:02.902Z,2.00
2022-09-14T23:35:08.266Z,2.03
2022-09-14T23:38:12.668Z,1.95
2022-09-14T23:41:19.190Z,1.88
2022-09-14T23:44:23.869Z,1.40
2022-09-14T23:47:28.458Z,1.10
2022-09-14T23:50:32.885Z,1.20
2022-09-14T23:53:38.656Z,2.50
2022-09-14T23:56:43.351Z,1.67
2022-09-14T23:59:48.383Z,1.70
